Time;durP1;ratioP1;P1;durP2;ratioP2;P2;SDS_P1;SDS_P2;PMS_P1;PMS_P2;Temp;Humidity;BMP_temperature;BMP_pressure;BME280_temperature;BME280_humidity;BME280_pressure;Samples;Min_cycle;Max_cycle;Signal;HPM_P1;HPM_P2
2021/10/22 00:01:16;;;;;;;8.65;1.20;;;;;;;;;;4996120;28;20064;-69
2021/10/22 00:04:02;;;;;;;7.53;1.40;;;;;;;;;;4995978;28;20056;-70
2021/10/22 00:06:47;;;;;;;7.65;1.10;;;;;;;;;;4996115;28;20064;-70
2021/10/22 00:09:32;;;;;;;8.30;1.02;;;;;;;;;;4996007;28;20064;-69
2021/10/22 00:12:17;;;;;;;12.30;1.85;;;;;;;;;;4995930;28;20064;-70
2021/10/22 00:15:03;;;;;;;16.67;1.45;;;;;;;;;;4995598;28;20060;-70
2021/10/22 00:17:49;;;;;;;10.77;1.58;;;;;;;;;;4914276;28;20441;-70
2021/10/22 00:20:34;;;;;;;8.48;1.10;;;;;;;;;;4995663;28;20056;-70
2021/10/22 00:23:19;;;;;;;8.82;1.48;;;;;;;;;;4914211;29;20123;-70
2021/10/22 00:26:04;;;;;;;7.80;1.67;;;;;;;;;;4995744;28;20060;-70
2021/10/22 00:28:49;;;;;;;11.32;1.98;;;;;;;;;;4995693;28;20064;-70
2021/10/22 00:31:34;;;;;;;7.10;1.23;;;;;;;;;;4995658;28;20056;-70
2021/10/22 00:34:20;;;;;;;16.52;1.35;;;;;;;;;;4995326;28;20064;-70
2021/10/22 00:37:04;;;;;;;9.98;1.25;;;;;;;;;;4995341;28;20052;-70
2021/10/22 00:39:50;;;;;;;6.55;1.25;;;;;;;;;;4995461;28;20060;-70
2021/10/22 00:42:35;;;;;;;10.50;1.90;;;;;;;;;;4913923;29;20056;-70
2021/10/22 00:45:21;;;;;;;9.32;1.35;;;;;;;;;;4995060;28;20064;-70
2021/10/22 00:48:06;;;;;;;8.73;1.45;;;;;;;;;;4995669;28;20422;-70
2021/10/22 00:50:56;;;;;;;11.18;1.42;;;;;;;;;;4995170;28;20473;-70
2021/10/22 00:53:41;;;;;;;11.68;1.67;;;;;;;;;;4994833;28;20127;-70
2021/10/22 00:56:26;;;;;;;7.55;1.45;;;;;;;;;;4995193;28;20064;-70
2021/10/22 00:59:12;;;;;;;17.63;3.42;;;;;;;;;;4995206;28;20064;-69
2021/10/22 01:01:57;;;;;;;15.75;2.42;;;;;;;;;;4995121;28;20064;-70
2021/10/22 01:04:42;;;;;;;12.25;2.38;;;;;;;;;;4994794;28;20056;-70
2021/10/22 01:07:28;;;;;;;12.48;1.98;;;;;;;;;;4978928;28;20418;-70
2021/10/22 01:10:13;;;;;;;8.27;1.27;;;;;;;;;;4995023;28;20127;-70
2021/10/22 01:12:58;;;;;;;17.17;1.83;;;;;;;;;;4913543;29;20060;-70
2021/10/22 01:15:43;;;;;;;12.27;1.88;;;;;;;;;;4994784;28;20391;-70
2021/10/22 01:18:29;;;;;;;16.42;3.03;;;;;;;;;;4995149;28;20060;-70
2021/10/22 01:21:14;;;;;;;11.50;1.90;;;;;;;;;;4994679;28;20514;-70
2021/10/22 01:23:59;;;;;;;10.20;1.70;;;;;;;;;;4994942;28;20044;-70
2021/10/22 01:26:44;;;;;;;10.43;1.52;;;;;;;;;;4994850;28;20131;-69
2021/10/22 01:29:29;;;;;;;7.82;1.50;;;;;;;;;;4981925;28;20068;-70
2021/10/22 01:32:15;;;;;;;12.18;1.65;;;;;;;;;;4913191;29;20186;-70
2021/10/22 01:35:00;;;;;;;8.55;1.25;;;;;;;;;;4994635;28;20056;-70
2021/10/22 01:37:48;;;;;;;12.00;1.75;;;;;;;;;;4913200;29;20051;-70
2021/10/22 01:40:33;;;;;;;9.38;2.30;;;;;;;;;;4994793;28;20056;-70
2021/10/22 01:43:18;;;;;;;8.40;2.42;;;;;;;;;;4913136;29;20495;-70
2021/10/22 01:46:04;;;;;;;9.88;2.50;;;;;;;;;;4994540;28;20060;-70
2021/10/22 01:48:49;;;;;;;12.93;2.40;;;;;;;;;;4994798;28;20068;-71
2021/10/22 01:51:34;;;;;;;11.88;1.25;;;;;;;;;;4994565;28;20064;-70
2021/10/22 01:54:19;;;;;;;9.95;1.40;;;;;;;;;;4912744;29;20131;-70
2021/10/22 01:57:05;;;;;;;9.80;1.45;;;;;;;;;;4994538;28;20056;-71
2021/10/22 01:59:51;;;;;;;9.20;1.30;;;;;;;;;;4994467;28;20056;-71
2021/10/22 02:02:36;;;;;;;11.07;1.80;;;;;;;;;;4994230;28;20507;-71
2021/10/22 02:05:21;;;;;;;8.70;1.55;;;;;;;;;;4995385;28;20507;-71
2021/10/22 02:08:08;;;;;;;14.75;2.58;;;;;;;;;;4998530;28;20127;-71
2021/10/22 02:10:54;;;;;;;10.13;1.48;;;;;;;;;;4998158;28;20060;-70
2021/10/22 02:13:40;;;;;;;9.95;1.58;;;;;;;;;;4981526;28;20451;-70
2021/10/22 02:16:25;;;;;;;7.55;1.73;;;;;;;;;;4997979;28;20498;-71
2021/10/22 02:19:10;;;;;;;15.55;2.38;;;;;;;;;;4998350;28;20052;-71
2021/10/22 02:21:56;;;;;;;10.98;1.90;;;;;;;;;;4997989;28;20060;-71
2021/10/22 02:24:41;;;;;;;12.45;2.00;;;;;;;;;;4971636;28;20056;-70
2021/10/22 02:27:28;;;;;;;13.05;1.65;;;;;;;;;;4997856;28;20060;-71
2021/10/22 02:30:15;;;;;;;10.60;2.00;;;;;;;;;;4981481;28;20056;-71
2021/10/22 02:33:00;;;;;;;12.52;2.05;;;;;;;;;;4997870;28;20064;-71
2021/10/22 02:35:45;;;;;;;10.68;1.60;;;;;;;;;;4971133;28;20056;-71
2021/10/22 02:38:31;;;;;;;11.60;1.50;;;;;;;;;;4997696;28;20056;-71
2021/10/22 02:41:16;;;;;;;12.55;2.17;;;;;;;;;;4997610;28;20052;-71
2021/10/22 02:44:04;;;;;;;11.50;2.92;;;;;;;;;;4982160;28;20127;-71
2021/10/22 02:46:54;;;;;;;8.10;1.83;;;;;;;;;;4915659;29;20064;-70
2021/10/22 02:49:39;;;;;;;9.82;2.17;;;;;;;;;;4996433;28;20060;-71
2021/10/22 02:52:25;;;;;;;10.25;1.70;;;;;;;;;;4996910;28;20068;-71
2021/10/22 02:55:11;;;;;;;15.85;2.00;;;;;;;;;;4997116;28;20064;-70
2021/10/22 02:57:56;;;;;;;13.27;1.85;;;;;;;;;;4997280;28;20507;-70
2021/10/22 03:00:42;;;;;;;7.90;1.40;;;;;;;;;;4915307;29;20052;-70
2021/10/22 03:03:27;;;;;;;9.15;1.83;;;;;;;;;;4996900;28;20056;-70
2021/10/22 03:06:13;;;;;;;11.68;1.70;;;;;;;;;;4997246;28;20060;-70
2021/10/22 03:08:59;;;;;;;13.63;2.08;;;;;;;;;;4997230;28;20064;-71
2021/10/22 03:11:44;;;;;;;13.50;1.70;;;;;;;;;;4997396;28;20063;-70
2021/10/22 03:14:30;;;;;;;11.27;2.47;;;;;;;;;;4966881;28;20135;-71
2021/10/22 03:17:15;;;;;;;12.77;2.50;;;;;;;;;;4996725;28;20056;-71
2021/10/22 03:20:00;;;;;;;11.10;2.00;;;;;;;;;;4997019;28;20048;-71
2021/10/22 03:22:45;;;;;;;11.50;2.17;;;;;;;;;;4996928;28;20064;-70
2021/10/22 03:25:30;;;;;;;10.55;1.85;;;;;;;;;;4996634;28;20053;-70
2021/10/22 03:28:15;;;;;;;9.70;2.03;;;;;;;;;;4996837;28;20092;-71
2021/10/22 03:31:00;;;;;;;11.48;2.45;;;;;;;;;;4914900;28;20085;-71
2021/10/22 03:33:46;;;;;;;9.27;2.08;;;;;;;;;;4996680;28;20068;-71
2021/10/22 03:36:33;;;;;;;7.10;1.80;;;;;;;;;;4996628;28;20060;-71
2021/10/22 03:39:18;;;;;;;12.60;2.10;;;;;;;;;;4915015;28;20056;-71
2021/10/22 03:42:04;;;;;;;12.20;2.17;;;;;;;;;;4996593;28;20056;-70
2021/10/22 03:44:49;;;;;;;12.45;1.70;;;;;;;;;;4996528;28;20096;-70
2021/10/22 03:47:34;;;;;;;16.33;2.15;;;;;;;;;;4996398;28;20064;-70
2021/10/22 03:50:20;;;;;;;13.98;2.05;;;;;;;;;;4914739;29;20127;-69
2021/10/22 03:53:07;;;;;;;10.93;1.40;;;;;;;;;;4996424;28;20064;-69
2021/10/22 03:55:54;;;;;;;12.00;2.20;;;;;;;;;;4980128;28;20061;-70
2021/10/22 03:58:39;;;;;;;14.73;1.80;;;;;;;;;;4950367;28;20052;-70
2021/10/22 04:01:24;;;;;;;10.52;2.03;;;;;;;;;;4960520;28;20065;-70
2021/10/22 04:04:09;;;;;;;11.07;2.08;;;;;;;;;;4960445;28;20060;-70
2021/10/22 04:06:56;;;;;;;15.25;1.83;;;;;;;;;;4960666;28;20061;-70
2021/10/22 04:09:41;;;;;;;14.02;2.15;;;;;;;;;;4939733;29;20061;-69
2021/10/22 04:12:26;;;;;;;12.10;2.47;;;;;;;;;;4876611;29;20393;-70
2021/10/22 04:15:12;;;;;;;9.52;2.35;;;;;;;;;;4940943;28;20066;-70
2021/10/22 04:17:57;;;;;;;15.18;2.28;;;;;;;;;;4940919;29;20057;-70
2021/10/22 04:20:42;;;;;;;16.85;1.92;;;;;;;;;;4876877;29;20120;-70
2021/10/22 04:23:27;;;;;;;12.35;2.25;;;;;;;;;;4944172;28;20061;-69
2021/10/22 04:26:13;;;;;;;9.75;1.98;;;;;;;;;;4876677;29;20489;-69
2021/10/22 04:28:58;;;;;;;9.20;1.48;;;;;;;;;;4894251;29;20084;-69
2021/10/22 04:31:43;;;;;;;15.85;2.28;;;;;;;;;;4960084;28;20535;-69
2021/10/22 04:34:28;;;;;;;16.40;2.90;;;;;;;;;;4962604;28;20107;-69
2021/10/22 04:40:33;;;;;;;10.48;1.92;;;;;;;;;;4895398;28;20056;-69
2021/10/22 04:43:18;;;;;;;8.90;1.48;;;;;;;;;;4964555;28;20052;-69
2021/10/22 04:46:03;;;;;;;12.00;1.83;;;;;;;;;;4949506;28;20064;-69
2021/10/22 04:48:48;;;;;;;13.55;1.60;;;;;;;;;;4959906;28;20068;-69
2021/10/22 04:51:33;;;;;;;11.38;1.60;;;;;;;;;;4895175;28;20131;-69
2021/10/22 04:54:18;;;;;;;10.90;1.75;;;;;;;;;;4959793;28;20053;-69
2021/10/22 04:57:03;;;;;;;14.57;1.85;;;;;;;;;;4959624;28;20056;-69
2021/10/22 04:59:48;;;;;;;16.10;1.95;;;;;;;;;;4959859;28;20450;-69
2021/10/22 05:02:35;;;;;;;11.70;1.75;;;;;;;;;;4974832;28;20054;-70
2021/10/22 05:05:20;;;;;;;13.90;2.05;;;;;;;;;;4975223;28;20062;-70
2021/10/22 05:08:05;;;;;;;9.05;2.10;;;;;;;;;;4991926;28;20058;-70
2021/10/22 05:10:50;;;;;;;14.15;1.90;;;;;;;;;;4991764;28;20062;-70
2021/10/22 05:13:35;;;;;;;17.42;2.25;;;;;;;;;;4991628;28;20054;-70
2021/10/22 05:16:20;;;;;;;10.07;1.63;;;;;;;;;;4992779;28;20497;-70
2021/10/22 05:19:05;;;;;;;11.18;2.10;;;;;;;;;;4975544;28;20046;-70
2021/10/22 05:21:50;;;;;;;10.50;1.50;;;;;;;;;;4991621;28;20058;-70
2021/10/22 05:24:35;;;;;;;14.38;1.95;;;;;;;;;;4991657;28;20413;-70
2021/10/22 05:27:20;;;;;;;11.80;2.00;;;;;;;;;;4975641;28;20054;-70
2021/10/22 05:30:06;;;;;;;10.55;1.85;;;;;;;;;;4992864;28;20050;-70
2021/10/22 05:32:51;;;;;;;14.70;3.05;;;;;;;;;;4991653;28;20046;-71
2021/10/22 05:35:36;;;;;;;9.95;2.42;;;;;;;;;;4991624;28;20433;-69
2021/10/22 05:38:21;;;;;;;12.65;1.90;;;;;;;;;;4991394;28;20505;-69
2021/10/22 05:41:06;;;;;;;7.70;1.77;;;;;;;;;;4992436;28;20055;-70
2021/10/22 05:43:55;;;;;;;12.63;2.15;;;;;;;;;;4991247;28;20055;-70
2021/10/22 05:46:40;;;;;;;9.77;1.92;;;;;;;;;;4991354;28;20129;-70
2021/10/22 05:49:25;;;;;;;7.95;1.23;;;;;;;;;;4991368;28;20062;-70
2021/10/22 05:52:11;;;;;;;9.25;1.38;;;;;;;;;;4974938;28;20059;-70
2021/10/22 05:54:55;;;;;;;10.02;1.35;;;;;;;;;;4991508;28;20386;-70
2021/10/22 05:57:41;;;;;;;14.05;2.08;;;;;;;;;;4991241;28;20062;-70
2021/10/22 06:00:26;;;;;;;10.98;1.60;;;;;;;;;;4974590;28;20049;-70
2021/10/22 06:03:11;;;;;;;7.80;1.60;;;;;;;;;;4957498;28;20056;-70
2021/10/22 06:05:57;;;;;;;13.45;2.67;;;;;;;;;;4957934;28;20057;-70
2021/10/22 06:08:42;;;;;;;15.10;1.88;;;;;;;;;;4953793;28;20511;-70
2021/10/22 06:11:27;;;;;;;17.05;2.25;;;;;;;;;;4958993;28;20061;-70
2021/10/22 06:14:12;;;;;;;10.60;2.00;;;;;;;;;;4958591;28;20069;-70
2021/10/22 06:16:57;;;;;;;14.32;2.28;;;;;;;;;;4958612;28;20052;-70
2021/10/22 06:19:46;;;;;;;18.08;2.50;;;;;;;;;;4894096;28;20446;-70
2021/10/22 06:25:25;;;;;;;23.42;3.47;;;;;;;;;;4958476;28;20057;-70
2021/10/22 06:28:11;;;;;;;14.48;2.25;;;;;;;;;;4944856;28;20065;-70
2021/10/22 06:30:57;;;;;;;17.00;2.60;;;;;;;;;;4958523;28;20056;-70
2021/10/22 06:33:43;;;;;;;8.95;1.52;;;;;;;;;;4958613;28;20061;-70
2021/10/22 06:36:28;;;;;;;13.50;1.88;;;;;;;;;;4958272;28;20137;-70
2021/10/22 06:39:13;;;;;;;14.15;2.65;;;;;;;;;;4945418;28;20045;-70
2021/10/22 06:41:58;;;;;;;13.85;2.20;;;;;;;;;;4958096;28;20049;-70
2021/10/22 06:44:43;;;;;;;14.80;2.60;;;;;;;;;;4956297;28;20053;-71
2021/10/22 06:47:28;;;;;;;14.10;2.50;;;;;;;;;;4956679;28;20056;-71
2021/10/22 06:50:15;;;;;;;18.33;2.75;;;;;;;;;;4957590;28;20464;-71
2021/10/22 06:53:00;;;;;;;10.07;1.88;;;;;;;;;;4891624;29;20049;-71
2021/10/22 06:55:45;;;;;;;10.65;2.40;;;;;;;;;;4961657;28;20672;-70
2021/10/22 06:58:30;;;;;;;10.98;2.00;;;;;;;;;;4896419;28;20048;-70
2021/10/22 07:01:16;;;;;;;14.07;2.30;;;;;;;;;;4957996;28;20068;-70
2021/10/22 07:04:01;;;;;;;17.00;3.78;;;;;;;;;;4893099;29;20056;-71
2021/10/22 07:09:51;;;;;;;10.70;2.22;;;;;;;;;;4961851;28;20064;-69
2021/10/22 07:12:36;;;;;;;11.68;1.98;;;;;;;;;;4896566;28;20495;-70
2021/10/22 07:15:21;;;;;;;21.33;2.97;;;;;;;;;;4896532;28;20056;-69
2021/10/22 07:18:06;;;;;;;14.85;2.08;;;;;;;;;;4896496;28;20419;-68
2021/10/22 07:20:53;;;;;;;13.27;1.65;;;;;;;;;;4960786;28;20053;-69
2021/10/22 07:23:38;;;;;;;8.60;1.73;;;;;;;;;;4893831;29;20438;-69
2021/10/22 07:26:23;;;;;;;8.18;1.38;;;;;;;;;;4960759;28;20503;-69
2021/10/22 07:29:09;;;;;;;12.98;1.95;;;;;;;;;;4963400;28;20396;-70
2021/10/22 07:31:54;;;;;;;7.38;1.50;;;;;;;;;;4975201;28;21245;-69
2021/10/22 07:34:39;;;;;;;9.10;1.55;;;;;;;;;;4896266;28;20555;-70
2021/10/22 07:37:24;;;;;;;4.82;1.00;;;;;;;;;;4961068;28;20503;-69
2021/10/22 07:40:09;;;;;;;10.55;1.83;;;;;;;;;;4961328;28;20048;-70
2021/10/22 07:42:55;;;;;;;7.05;1.88;;;;;;;;;;4961111;28;20053;-71
2021/10/22 07:45:41;;;;;;;14.60;2.40;;;;;;;;;;4960772;28;20053;-69
2021/10/22 07:48:26;;;;;;;9.35;1.58;;;;;;;;;;4961185;28;20412;-69
2021/10/22 07:51:11;;;;;;;16.98;4.28;;;;;;;;;;4966755;28;20072;-72
2021/10/22 07:53:56;;;;;;;9.80;2.40;;;;;;;;;;4955767;28;20056;-69
2021/10/22 07:56:44;;;;;;;12.60;2.08;;;;;;;;;;4982050;28;20056;-69
2021/10/22 07:59:29;;;;;;;15.95;2.83;;;;;;;;;;4981782;28;20123;-70
2021/10/22 08:02:15;;;;;;;15.32;2.70;;;;;;;;;;4960679;28;20681;-71
2021/10/22 08:05:01;;;;;;;14.38;2.35;;;;;;;;;;4997283;28;20050;-71
2021/10/22 08:07:46;;;;;;;13.93;3.50;;;;;;;;;;4991245;28;20054;-70
2021/10/22 08:10:31;;;;;;;12.90;2.47;;;;;;;;;;4992065;28;20062;-71
2021/10/22 08:13:16;;;;;;;20.58;3.42;;;;;;;;;;4974245;28;20093;-71
2021/10/22 08:16:01;;;;;;;11.68;2.65;;;;;;;;;;4990295;28;20062;-70
2021/10/22 08:18:47;;;;;;;18.50;2.80;;;;;;;;;;4992220;28;20058;-71
2021/10/22 08:21:55;;;;;;;16.15;2.50;;;;;;;;;;4974517;28;20054;-70
2021/10/22 08:24:38;;;;;;;14.50;2.70;;;;;;;;;;4991567;28;20046;-70
2021/10/22 08:27:23;;;;;;;16.98;2.35;;;;;;;;;;4990143;28;20504;-71
2021/10/22 08:30:10;;;;;;;18.40;2.35;;;;;;;;;;4989868;28;20070;-71
2021/10/22 08:32:56;;;;;;;20.45;2.67;;;;;;;;;;4990921;28;20050;-71
2021/10/22 08:35:41;;;;;;;17.95;2.47;;;;;;;;;;4976240;28;20052;-71
2021/10/22 08:38:29;;;;;;;10.90;2.25;;;;;;;;;;4993066;28;20056;-70
2021/10/22 08:41:15;;;;;;;15.93;2.47;;;;;;;;;;4992687;28;20442;-70
2021/10/22 08:44:01;;;;;;;13.00;2.50;;;;;;;;;;4911905;29;20052;-69
2021/10/22 08:46:49;;;;;;;14.80;2.80;;;;;;;;;;4976872;28;20450;-70
2021/10/22 08:49:35;;;;;;;18.55;3.42;;;;;;;;;;4988492;28;20052;-71
2021/10/22 08:52:20;;;;;;;13.68;2.40;;;;;;;;;;4993218;28;20056;-70
2021/10/22 08:55:06;;;;;;;21.17;3.40;;;;;;;;;;4992220;28;20103;-70
2021/10/22 08:57:51;;;;;;;12.80;2.75;;;;;;;;;;4993373;28;20088;-70
2021/10/22 09:00:36;;;;;;;12.63;3.30;;;;;;;;;;4993130;28;20052;-68
2021/10/22 09:03:22;;;;;;;15.60;2.97;;;;;;;;;;4992516;28;20060;-69
2021/10/22 09:06:13;;;;;;;16.90;2.60;;;;;;;;;;4948851;28;20455;-70
2021/10/22 09:08:58;;;;;;;12.32;2.90;;;;;;;;;;4953616;28;20102;-69
2021/10/22 09:11:44;;;;;;;11.80;2.33;;;;;;;;;;4992537;28;20058;-69
2021/10/22 09:14:29;;;;;;;7.97;1.45;;;;;;;;;;4996850;28;20054;-69
2021/10/22 09:17:15;;;;;;;8.68;1.50;;;;;;;;;;4890820;28;20052;-69
2021/10/22 09:20:00;;;;;;;6.72;0.75;;;;;;;;;;4989856;28;20093;-69
2021/10/22 09:22:49;;;;;;;3.38;0.70;;;;;;;;;;4973567;28;20125;-68
2021/10/22 09:25:36;;;;;;;4.78;0.80;;;;;;;;;;4988577;28;20125;-64
2021/10/22 09:28:27;;;;;;;2.88;0.73;;;;;;;;;;4990322;28;20444;-63
2021/10/22 09:31:13;;;;;;;2.65;0.80;;;;;;;;;;4990755;28;20506;-64
2021/10/22 09:33:59;;;;;;;5.90;0.60;;;;;;;;;;4990095;28;20060;-64
2021/10/22 09:36:44;;;;;;;6.80;1.02;;;;;;;;;;4990386;28;20445;-64
2021/10/22 09:39:36;;;;;;;13.25;1.80;;;;;;;;;;4990278;28;20517;-63
2021/10/22 09:42:21;;;;;;;12.03;1.77;;;;;;;;;;4989928;28;20416;-64
2021/10/22 09:45:06;;;;;;;11.30;1.77;;;;;;;;;;4990470;28;20369;-64
2021/10/22 09:47:52;;;;;;;11.70;1.50;;;;;;;;;;4990066;28;20042;-64
2021/10/22 09:50:38;;;;;;;6.22;0.98;;;;;;;;;;4940607;28;20064;-64
2021/10/22 09:53:25;;;;;;;9.95;1.52;;;;;;;;;;4910359;28;20049;-64
2021/10/22 09:56:10;;;;;;;8.48;1.67;;;;;;;;;;4911351;28;20053;-64
2021/10/22 09:58:59;;;;;;;13.68;2.45;;;;;;;;;;4911062;28;20052;-64
2021/10/22 10:01:44;;;;;;;9.23;1.77;;;;;;;;;;4910463;28;20048;-64
2021/10/22 10:04:32;;;;;;;15.00;2.75;;;;;;;;;;4906354;28;20130;-64
2021/10/22 10:07:17;;;;;;;14.93;3.15;;;;;;;;;;4911156;28;20123;-64
2021/10/22 10:10:03;;;;;;;13.45;2.22;;;;;;;;;;4910914;28;20395;-63
2021/10/22 10:12:48;;;;;;;11.35;1.75;;;;;;;;;;4910961;28;20060;-66
2021/10/22 10:15:33;;;;;;;14.55;2.45;;;;;;;;;;4910072;28;20052;-64
2021/10/22 10:18:18;;;;;;;13.60;2.90;;;;;;;;;;4965203;28;20570;-63
2021/10/22 10:21:04;;;;;;;11.68;2.10;;;;;;;;;;4993430;28;20054;-63
2021/10/22 10:23:50;;;;;;;20.98;3.03;;;;;;;;;;4988903;28;20081;-63
2021/10/22 10:26:35;;;;;;;16.33;3.40;;;;;;;;;;4990274;28;20412;-64
2021/10/22 10:29:28;;;;;;;22.38;3.08;;;;;;;;;;4993855;28;20161;-67
2021/10/22 10:32:17;;;;;;;19.13;2.92;;;;;;;;;;4993562;28;20121;-63
2021/10/22 10:35:03;;;;;;;8.23;1.60;;;;;;;;;;4993838;28;20054;-63
2021/10/22 10:37:49;;;;;;;11.02;1.40;;;;;;;;;;4979144;28;20129;-64
2021/10/22 10:40:34;;;;;;;10.48;1.58;;;;;;;;;;4993107;28;20416;-64
2021/10/22 10:43:20;;;;;;;7.45;1.13;;;;;;;;;;4993431;28;20090;-64
2021/10/22 10:46:05;;;;;;;10.38;1.38;;;;;;;;;;4994523;28;20408;-65
2021/10/22 10:48:50;;;;;;;10.23;1.67;;;;;;;;;;4993170;28;20125;-64
2021/10/22 10:51:36;;;;;;;14.05;1.63;;;;;;;;;;4875546;29;20060;-67
2021/10/22 10:54:27;;;;;;;12.73;1.45;;;;;;;;;;4874662;28;20108;-67
2021/10/22 10:57:25;;;;;;;11.52;1.27;;;;;;;;;;4956482;28;20060;-66
2021/10/22 11:00:11;;;;;;;9.50;1.75;;;;;;;;;;4876170;29;20515;-66
2021/10/22 11:03:02;;;;;;;15.00;2.30;;;;;;;;;;4955889;28;20480;-66
2021/10/22 11:05:49;;;;;;;8.07;1.27;;;;;;;;;;4870967;29;20431;-67
2021/10/22 11:08:34;;;;;;;14.38;2.30;;;;;;;;;;4875302;28;20057;-67
2021/10/22 11:11:26;;;;;;;9.63;1.23;;;;;;;;;;4875318;29;20053;-68
2021/10/22 11:14:12;;;;;;;14.18;2.90;;;;;;;;;;4875627;28;20057;-67
2021/10/22 11:16:59;;;;;;;12.18;1.17;;;;;;;;;;4955855;28;20057;-67
2021/10/22 11:19:45;;;;;;;9.88;1.77;;;;;;;;;;4884327;28;20052;-67
2021/10/22 11:22:30;;;;;;;13.05;1.58;;;;;;;;;;4912437;28;20056;-67
2021/10/22 11:25:17;;;;;;;11.95;2.20;;;;;;;;;;4912791;28;20499;-66
2021/10/22 11:28:09;;;;;;;10.80;2.35;;;;;;;;;;4912945;28;20095;-67
2021/10/22 11:30:54;;;;;;;10.30;2.47;;;;;;;;;;4994843;28;20096;-67
2021/10/22 11:33:43;;;;;;;12.30;2.17;;;;;;;;;;4912214;28;20100;-68
2021/10/22 11:36:29;;;;;;;10.30;1.45;;;;;;;;;;4911948;28;20060;-66
2021/10/22 11:39:18;;;;;;;9.85;1.85;;;;;;;;;;4981542;28;20060;-67
2021/10/22 11:42:03;;;;;;;12.93;1.65;;;;;;;;;;4913176;28;20060;-67
2021/10/22 11:44:50;;;;;;;12.13;1.83;;;;;;;;;;4912694;28;20060;-67
2021/10/22 11:47:39;;;;;;;14.65;2.35;;;;;;;;;;4911831;28;20526;-67
2021/10/22 11:50:29;;;;;;;12.75;1.67;;;;;;;;;;4999880;28;20054;-67
2021/10/22 11:53:14;;;;;;;11.35;1.60;;;;;;;;;;4991266;28;20062;-67
2021/10/22 11:56:02;;;;;;;7.18;1.45;;;;;;;;;;4992606;28;20092;-67
2021/10/22 11:58:47;;;;;;;5.90;0.75;;;;;;;;;;4990918;28;20136;-67
2021/10/22 12:01:33;;;;;;;6.85;0.80;;;;;;;;;;4990300;28;20050;-68
2021/10/22 12:04:25;;;;;;;4.60;0.82;;;;;;;;;;4974588;28;20082;-67
2021/10/22 12:07:10;;;;;;;6.05;0.93;;;;;;;;;;4992419;28;20058;-67
2021/10/22 12:09:56;;;;;;;4.57;1.05;;;;;;;;;;4991187;28;20054;-67
2021/10/22 12:12:48;;;;;;;7.38;1.00;;;;;;;;;;4990324;28;20599;-67
2021/10/22 12:15:34;;;;;;;8.32;1.17;;;;;;;;;;4953212;28;20514;-67
2021/10/22 12:18:19;;;;;;;6.95;1.02;;;;;;;;;;4946399;28;20119;-69
2021/10/22 12:21:04;;;;;;;10.93;1.48;;;;;;;;;;4975385;28;20049;-66
2021/10/22 12:23:55;;;;;;;4.18;0.90;;;;;;;;;;4891078;28;20119;-67
2021/10/22 12:26:40;;;;;;;7.80;0.80;;;;;;;;;;4972898;28;20052;-65
2021/10/22 12:29:26;;;;;;;5.18;0.90;;;;;;;;;;4946573;28;20048;-65
2021/10/22 12:32:11;;;;;;;5.25;0.80;;;;;;;;;;4944255;28;20581;-65
2021/10/22 12:34:56;;;;;;;3.95;0.60;;;;;;;;;;4896469;28;20131;-64
2021/10/22 12:37:41;;;;;;;4.45;1.05;;;;;;;;;;5001622;28;20054;-65
2021/10/22 12:40:28;;;;;;;4.75;0.73;;;;;;;;;;4911422;28;20052;-65
2021/10/22 12:43:23;;;;;;;6.20;0.77;;;;;;;;;;4912514;28;20071;-65
2021/10/22 12:46:14;;;;;;;5.50;0.70;;;;;;;;;;4911287;28;20055;-64
2021/10/22 12:49:03;;;;;;;6.35;0.98;;;;;;;;;;4911003;28;20523;-64
2021/10/22 12:51:54;;;;;;;7.05;0.85;;;;;;;;;;4940588;28;20544;-65
2021/10/22 12:54:51;;;;;;;3.63;0.80;;;;;;;;;;4872530;28;20057;-66
2021/10/22 12:57:36;;;;;;;6.75;0.80;;;;;;;;;;4873815;29;20061;-64
2021/10/22 13:00:26;;;;;;;12.50;1.42;;;;;;;;;;4873189;28;20053;-65
2021/10/22 13:03:11;;;;;;;9.05;1.38;;;;;;;;;;4893229;28;20060;-65
2021/10/22 13:05:56;;;;;;;11.32;1.55;;;;;;;;;;4901852;28;20052;-65
2021/10/22 13:08:53;;;;;;;7.68;1.40;;;;;;;;;;4979498;28;20052;-65
2021/10/22 13:20:36;;;;;;;9.30;1.98;;;;;;;;;;4910957;28;20060;-65
2021/10/22 13:23:21;;;;;;;9.05;1.45;;;;;;;;;;4910380;28;20097;-65
2021/10/22 13:26:06;;;;;;;10.18;2.45;;;;;;;;;;4929479;28;20062;-64
2021/10/22 13:28:51;;;;;;;10.63;1.85;;;;;;;;;;4988714;28;20049;-66
2021/10/22 13:31:44;;;;;;;18.15;1.77;;;;;;;;;;4988433;28;20080;-65
2021/10/22 13:34:29;;;;;;;8.20;1.27;;;;;;;;;;4989924;28;20054;-65
2021/10/22 13:37:14;;;;;;;10.65;1.50;;;;;;;;;;4990076;28;20051;-65
2021/10/22 13:40:00;;;;;;;10.35;1.45;;;;;;;;;;4989918;28;20050;-66
2021/10/22 13:42:45;;;;;;;12.48;1.92;;;;;;;;;;4990745;28;20118;-65
2021/10/22 13:45:30;;;;;;;16.67;1.98;;;;;;;;;;4990199;28;20050;-65
2021/10/22 13:48:15;;;;;;;9.63;1.10;;;;;;;;;;4990683;28;20062;-65
2021/10/22 13:51:00;;;;;;;10.85;2.13;;;;;;;;;;4990474;28;20086;-65
2021/10/22 13:53:46;;;;;;;13.40;1.75;;;;;;;;;;4990299;28;20054;-65
2021/10/22 13:56:31;;;;;;;15.85;2.30;;;;;;;;;;4958056;28;20048;-65
2021/10/22 13:59:17;;;;;;;13.70;1.70;;;;;;;;;;4911190;28;20048;-65
2021/10/22 14:02:02;;;;;;;16.02;1.67;;;;;;;;;;4968922;28;20052;-65
2021/10/22 14:04:47;;;;;;;8.93;1.58;;;;;;;;;;4914215;28;20052;-65
2021/10/22 14:07:32;;;;;;;13.70;1.58;;;;;;;;;;4913041;28;20675;-65
2021/10/22 14:10:23;;;;;;;10.65;1.65;;;;;;;;;;4909214;28;20048;-67
2021/10/22 14:13:15;;;;;;;11.63;1.70;;;;;;;;;;4898910;28;20079;-66
2021/10/22 14:30:29;;;;;;;5.45;1.13;;;;;;;;;;4894508;28;20155;-66
2021/10/22 14:33:15;;;;;;;8.23;0.98;;;;;;;;;;4895571;28;20056;-65
2021/10/22 14:36:00;;;;;;;11.02;1.52;;;;;;;;;;4894766;28;20057;-65
2021/10/22 14:38:45;;;;;;;8.90;1.20;;;;;;;;;;4895003;28;20128;-65
2021/10/22 14:41:31;;;;;;;6.65;1.30;;;;;;;;;;4894510;29;20059;-66
2021/10/22 14:44:23;;;;;;;7.15;1.60;;;;;;;;;;4948551;28;20061;-66
2021/10/22 14:50:25;;;;;;;8.50;0.93;;;;;;;;;;4899327;28;20130;-66
2021/10/22 14:53:16;;;;;;;8.43;1.52;;;;;;;;;;4946989;28;20411;-66
2021/10/22 14:56:01;;;;;;;8.13;1.30;;;;;;;;;;4949419;28;20054;-66
2021/10/22 14:58:46;;;;;;;10.80;1.95;;;;;;;;;;4968873;28;20127;-66
2021/10/22 15:01:33;;;;;;;8.70;1.48;;;;;;;;;;4964696;28;20056;-66
2021/10/22 15:04:18;;;;;;;12.05;1.83;;;;;;;;;;4972229;28;20052;-66
2021/10/22 15:07:03;;;;;;;11.75;1.77;;;;;;;;;;4913094;28;20134;-66
2021/10/22 15:09:49;;;;;;;10.43;1.75;;;;;;;;;;4913440;28;20048;-67
2021/10/22 15:12:36;;;;;;;7.88;2.05;;;;;;;;;;4989810;28;20070;-66
2021/10/22 15:15:21;;;;;;;8.23;1.25;;;;;;;;;;4967999;28;20083;-66
2021/10/22 15:18:06;;;;;;;9.98;1.73;;;;;;;;;;4913298;28;20388;-65
2021/10/22 15:20:52;;;;;;;10.98;2.45;;;;;;;;;;4913085;28;20048;-66
2021/10/22 15:23:38;;;;;;;12.98;1.98;;;;;;;;;;4912823;28;20060;-66
2021/10/22 15:26:23;;;;;;;9.27;1.85;;;;;;;;;;4912388;28;20088;-66
2021/10/22 15:29:09;;;;;;;6.95;1.77;;;;;;;;;;4994894;28;20503;-67
2021/10/22 15:31:54;;;;;;;8.63;1.58;;;;;;;;;;4912412;28;20387;-66
2021/10/22 15:34:39;;;;;;;5.43;2.15;;;;;;;;;;4911993;28;20235;-66
2021/10/22 15:37:25;;;;;;;9.10;1.80;;;;;;;;;;4967728;28;20052;-65
2021/10/22 15:40:11;;;;;;;7.32;1.33;;;;;;;;;;4964547;28;20048;-66
2021/10/22 15:42:56;;;;;;;4.97;0.73;;;;;;;;;;4993602;28;20052;-66
2021/10/22 15:45:41;;;;;;;4.45;0.90;;;;;;;;;;4912076;28;20060;-65
2021/10/22 15:48:26;;;;;;;5.20;0.90;;;;;;;;;;4994169;28;20056;-65
2021/10/22 15:51:12;;;;;;;7.55;1.13;;;;;;;;;;4912238;28;20131;-66
2021/10/22 15:53:57;;;;;;;5.25;1.10;;;;;;;;;;4912716;29;20095;-66
2021/10/22 15:56:43;;;;;;;5.97;0.80;;;;;;;;;;4950888;28;20464;-66
2021/10/22 15:59:29;;;;;;;6.93;0.52;;;;;;;;;;4975714;28;20109;-66
2021/10/22 16:02:15;;;;;;;8.75;2.03;;;;;;;;;;4893531;29;20045;-66
2021/10/22 16:05:01;;;;;;;6.65;1.38;;;;;;;;;;4893252;28;20053;-66
2021/10/22 16:08:19;;;;;;;7.60;1.20;;;;;;;;;;4894032;28;20052;-65
2021/10/22 16:13:47;;;;;;;8.25;1.15;;;;;;;;;;4888353;28;20053;-65
2021/10/22 16:19:28;;;;;;;9.70;1.75;;;;;;;;;;4899836;28;20057;-66
2021/10/22 16:22:13;;;;;;;8.15;2.00;;;;;;;;;;4912595;28;20044;-66
2021/10/22 16:24:59;;;;;;;10.40;2.35;;;;;;;;;;4873172;28;20096;-66
2021/10/22 16:27:44;;;;;;;14.18;1.48;;;;;;;;;;4908411;29;20052;-65
2021/10/22 16:30:29;;;;;;;9.52;1.90;;;;;;;;;;4992889;28;20060;-66
2021/10/22 16:35:41;;;;;;;7.40;1.75;;;;;;;;;;4912328;28;20583;-65
2021/10/22 16:36:28;;;;;;;12.93;2.22;;;;;;;;;;4965803;28;20063;-66
2021/10/22 16:39:13;;;;;;;8.95;2.88;;;;;;;;;;4912166;28;20052;-65
2021/10/22 16:41:59;;;;;;;8.23;1.95;;;;;;;;;;4993688;28;20137;-65
2021/10/22 16:44:44;;;;;;;9.18;2.17;;;;;;;;;;4905349;28;20045;-65
2021/10/22 16:47:29;;;;;;;14.88;3.38;;;;;;;;;;4902790;29;20056;-65
2021/10/22 16:50:14;;;;;;;9.52;2.25;;;;;;;;;;4992988;28;20060;-65
2021/10/22 16:53:00;;;;;;;23.45;5.78;;;;;;;;;;4967333;28;20067;-65
2021/10/22 16:55:45;;;;;;;15.45;3.17;;;;;;;;;;4917916;28;20106;-65
2021/10/22 16:58:32;;;;;;;13.57;1.95;;;;;;;;;;4991038;28;20054;-65
2021/10/22 17:01:20;;;;;;;11.48;1.63;;;;;;;;;;4991224;28;20051;-66
2021/10/22 17:04:05;;;;;;;12.40;2.08;;;;;;;;;;4986804;28;20117;-66
2021/10/22 17:06:50;;;;;;;13.55;2.58;;;;;;;;;;4919102;22;20509;-64
2021/10/22 17:09:36;;;;;;;16.23;3.20;;;;;;;;;;4924388;29;20068;-65